Time;durP1;ratioP1;P1;durP2;ratioP2;P2;SDS_P1;SDS_P2;PMS_P1;PMS_P2;Temp;Humidity;BMP_temperature;BMP_pressure;BME280_temperature;BME280_humidity;BME280_pressure;Samples;Min_cycle;Max_cycle;Signal;HPM_P1;HPM_P2
2022/08/12 04:14:44;;;;;;;;;;;;;;;25.44;43.41;96761.84;4200915;28;5681;-69
2022/08/12 04:16:48;;;;;;;;;;;;;;;25.63;43.09;96753.75;4200435;28;5640;-69
2022/08/12 04:18:51;;;;;;;;;;;;;;;25.80;43.06;96756.81;4197698;28;5745;-70
2022/08/12 04:20:55;;;;;;;;;;;;;;;25.91;42.95;96752.84;4195527;28;5848;-70
2022/08/12 04:22:59;;;;;;;;;;;;;;;26.00;42.27;96751.13;4200539;28;5838;-70
2022/08/12 04:25:02;;;;;;;;;;;;;;;26.07;42.41;96754.28;4206547;28;5716;-69
2022/08/12 04:27:08;;;;;;;;;;;;;;;26.11;42.10;96744.44;4214281;28;5685;-69
2022/08/12 04:29:11;;;;;;;;;;;;;;;26.17;42.05;96750.59;4198304;28;5763;-69
2022/08/12 04:31:14;;;;;;;;;;;;;;;26.22;42.37;96749.72;4203213;28;5862;-69
2022/08/12 04:33:18;;;;;;;;;;;;;;;26.24;41.75;96751.03;4204318;28;5842;-70
2022/08/12 04:35:21;;;;;;;;;;;;;;;26.29;41.99;96747.44;4201542;28;5957;-69
2022/08/12 04:37:24;;;;;;;;;;;;;;;26.31;42.03;96750.66;4201034;28;5717;-70
2022/08/12 04:39:27;;;;;;;;;;;;;;;26.33;41.81;96749.25;4201389;28;5820;-70
2022/08/12 04:41:31;;;;;;;;;;;;;;;26.36;42.00;96747.88;4196896;28;5688;-70
2022/08/12 04:43:37;;;;;;;;;;;;;;;26.36;41.81;96739.72;4197039;28;5726;-70
2022/08/12 04:46:01;;;;;;;;;;;;;;;26.35;41.92;96746.25;4200049;28;5844;-70
2022/08/12 04:48:05;;;;;;;;;;;;;;;26.38;41.32;96751.09;4200188;28;5709;-71
2022/08/12 04:50:08;;;;;;;;;;;;;;;26.37;41.67;96744.88;4198241;28;5883;-71
2022/08/12 04:52:31;;;;;;;;;;;;;;;26.40;41.23;96748.94;4197577;28;5845;-70
2022/08/12 04:54:37;;;;;;;;;;;;;;;26.42;41.29;96754.84;4205201;28;5960;-70
2022/08/12 04:56:41;;;;;;;;;;;;;;;26.42;41.21;96746.72;4198998;28;6121;-70
2022/08/12 04:58:45;;;;;;;;;;;;;;;26.44;41.34;96749.13;4200173;28;5700;-70
2022/08/12 05:00:54;;;;;;;;;;;;;;;26.43;41.39;96748.34;4201509;28;5713;-70
2022/08/12 05:02:57;;;;;;;;;;;;;;;26.42;41.05;96752.16;4206073;28;5824;-70
2022/08/12 05:05:01;;;;;;;;;;;;;;;26.41;41.28;96750.53;4202354;28;5831;-71
2022/08/12 05:07:06;;;;;;;;;;;;;;;26.42;41.01;96754.06;4199654;28;6346;-71
2022/08/12 05:09:10;;;;;;;;;;;;;;;26.42;41.06;96749.44;4199522;28;5717;-71
2022/08/12 05:11:15;;;;;;;;;;;;;;;26.42;41.33;96752.16;4201221;28;5833;-71
2022/08/12 05:13:21;;;;;;;;;;;;;;;26.41;41.01;96755.97;4190224;28;6844;-71
2022/08/12 05:15:25;;;;;;;;;;;;;;;26.42;40.84;96757.56;4190945;28;5087;-71
2022/08/12 05:17:32;;;;;;;;;;;;;;;26.43;40.86;96759.19;4186107;28;5702;-71
2022/08/12 05:19:37;;;;;;;;;;;;;;;26.44;40.56;96758.06;4189733;28;5898;-71
2022/08/12 05:21:45;;;;;;;;;;;;;;;26.43;40.75;96756.47;4185720;28;5706;-71
2022/08/12 05:23:48;;;;;;;;;;;;;;;26.45;40.78;96764.28;4188414;28;5756;-71
2022/08/12 05:25:55;;;;;;;;;;;;;;;26.44;40.88;96754.56;4185505;28;5899;-71
2022/08/12 05:27:59;;;;;;;;;;;;;;;26.44;40.78;96765.41;4193105;28;5767;-71
2022/08/12 05:30:02;;;;;;;;;;;;;;;26.45;40.53;96762.38;4202214;28;5700;-71
2022/08/12 05:32:19;;;;;;;;;;;;;;;26.47;40.89;96770.22;4188100;28;5761;-71
2022/08/12 05:34:22;;;;;;;;;;;;;;;26.47;40.76;96762.09;4189309;28;5736;-71
2022/08/12 05:36:28;;;;;;;;;;;;;;;26.49;40.69;96766.09;4186954;28;5829;-71
2022/08/12 05:40:51;;;;;;;;;;;;;;;26.51;40.44;96763.94;4187251;28;5725;-71
2022/08/12 05:42:55;;;;;;;;;;;;;;;26.53;40.76;96769.06;4193846;28;6384;-71
2022/08/12 05:44:58;;;;;;;;;;;;;;;26.52;40.67;96762.84;4185994;28;6086;-71
2022/08/12 05:47:02;;;;;;;;;;;;;;;26.53;40.56;96769.06;4217365;28;5191;-71
2022/08/12 05:49:06;;;;;;;;;;;;;;;26.54;40.57;96771.47;4193388;28;5708;-71
2022/08/12 05:51:10;;;;;;;;;;;;;;;26.56;40.44;96771.16;4191800;28;5775;-71
2022/08/12 05:53:13;;;;;;;;;;;;;;;26.57;40.78;96765.44;4186107;28;6365;-70
2022/08/12 05:55:16;;;;;;;;;;;;;;;26.58;40.66;96772.47;4187049;28;5785;-71
2022/08/12 05:57:19;;;;;;;;;;;;;;;26.59;40.33;96773.28;4188803;28;6212;-71
2022/08/12 05:59:22;;;;;;;;;;;;;;;26.62;40.74;96776.22;4188825;28;5725;-71
2022/08/12 06:01:27;;;;;;;;;;;;;;;26.65;40.64;96772.91;4189345;28;5929;-71
2022/08/12 06:03:50;;;;;;;;;;;;;;;26.69;40.45;96771.19;4195753;28;5813;-71
2022/08/12 06:05:55;;;;;;;;;;;;;;;26.78;40.50;96776.75;4187580;28;5793;-72
2022/08/12 06:07:58;;;;;;;;;;;;;;;26.86;40.45;96776.09;4184674;28;5772;-71
2022/08/12 06:10:05;;;;;;;;;;;;;;;26.94;40.20;96769.94;4193991;28;5685;-72
2022/08/12 06:12:09;;;;;;;;;;;;;;;27.05;40.06;96769.81;4186055;28;5765;-72
2022/08/12 06:14:12;;;;;;;;;;;;;;;27.13;39.92;96771.84;4184825;28;5710;-72
2022/08/12 06:16:20;;;;;;;;;;;;;;;27.17;40.09;96764.69;4187350;28;5704;-72
2022/08/12 06:18:23;;;;;;;;;;;;;;;27.19;40.13;96765.22;4194156;28;5688;-72
2022/08/12 06:20:31;;;;;;;;;;;;;;;27.17;40.24;96770.91;4187192;28;5114;-72
2022/08/12 06:22:38;;;;;;;;;;;;;;;27.19;40.09;96770.66;4184268;28;5110;-71
2022/08/12 06:24:41;;;;;;;;;;;;;;;27.22;40.06;96776.28;4183345;28;5868;-72
2022/08/12 06:26:44;;;;;;;;;;;;;;;27.27;40.03;96770.72;4190111;28;5802;-72
2022/08/12 06:28:49;;;;;;;;;;;;;;;27.30;40.04;96773.97;4187180;28;5911;-72
2022/08/12 06:30:54;;;;;;;;;;;;;;;27.33;40.06;96776.06;4190133;28;5680;-72
2022/08/12 06:33:18;;;;;;;;;;;;;;;27.36;40.13;96775.47;4185910;28;6869;-72
2022/08/12 06:35:26;;;;;;;;;;;;;;;27.37;39.93;96771.66;4196990;28;5684;-72
2022/08/12 06:37:54;;;;;;;;;;;;;;;27.35;39.99;96773.84;4200961;28;5749;-72
2022/08/12 06:39:59;;;;;;;;;;;;;;;27.38;39.82;96770.53;4201313;28;5865;-72
2022/08/12 06:44:34;;;;;;;;;;;;;;;27.30;39.78;96777.50;4201051;28;5733;-72
2022/08/12 06:46:38;;;;;;;;;;;;;;;27.31;39.58;96783.72;4200661;28;5682;-72
2022/08/12 06:48:42;;;;;;;;;;;;;;;27.31;39.59;96776.38;4201094;28;5706;-72
2022/08/12 06:50:47;;;;;;;;;;;;;;;27.31;39.63;96775.56;4200886;28;5701;-72
2022/08/12 06:52:51;;;;;;;;;;;;;;;27.32;39.66;96774.47;4200629;28;5821;-72
2022/08/12 06:54:58;;;;;;;;;;;;;;;27.33;39.93;96771.44;4199746;28;5693;-72
2022/08/12 06:57:02;;;;;;;;;;;;;;;27.38;39.61;96767.81;4201002;28;5784;-72
2022/08/12 06:59:25;;;;;;;;;;;;;;;27.39;39.71;96775.66;4199756;28;5685;-72
2022/08/12 07:01:30;;;;;;;;;;;;;;;27.41;39.66;96778.06;4200334;28;5688;-72
2022/08/12 07:03:35;;;;;;;;;;;;;;;27.41;39.96;96778.91;4200594;28;5692;-72
2022/08/12 07:05:38;;;;;;;;;;;;;;;27.39;39.87;96774.84;4200914;28;5716;-72
2022/08/12 07:07:41;;;;;;;;;;;;;;;27.39;40.05;96777.56;4200788;28;5700;-72
2022/08/12 07:09:48;;;;;;;;;;;;;;;27.34;39.94;96772.25;4199410;28;5720;-72
2022/08/12 07:12:18;;;;;;;;;;;;;;;27.33;40.30;96768.75;4200278;28;5681;-72
2022/08/12 07:14:21;;;;;;;;;;;;;;;27.33;40.27;96771.44;4200338;28;5684;-72
2022/08/12 07:16:25;;;;;;;;;;;;;;;27.32;40.22;96769.84;4200280;28;5704;-72
2022/08/12 07:18:31;;;;;;;;;;;;;;;27.31;40.28;96767.44;4199335;28;5716;-72
2022/08/12 07:20:35;;;;;;;;;;;;;;;27.32;40.38;96769.03;4200155;28;5804;-72
2022/08/12 07:22:54;;;;;;;;;;;;;;;27.31;40.66;96772.88;4199553;28;5692;-72
2022/08/12 07:27:24;;;;;;;;;;;;;;;27.15;40.86;96769.63;4182240;28;5700;-72
2022/08/12 07:29:27;;;;;;;;;;;;;;;27.13;41.01;96771.84;4183940;28;5828;-73
2022/08/12 07:31:50;;;;;;;;;;;;;;;27.14;41.11;96771.53;4193066;28;5748;-72
2022/08/12 07:33:54;;;;;;;;;;;;;;;27.17;41.06;96764.69;4189275;28;5788;-72
2022/08/12 07:36:01;;;;;;;;;;;;;;;27.17;41.07;96773.63;4198816;28;5708;-72
2022/08/12 07:38:03;;;;;;;;;;;;;;;27.19;41.33;96771.44;4199142;28;5692;-72
2022/08/12 07:40:10;;;;;;;;;;;;;;;27.17;41.54;96762.78;4190313;28;5779;-72
2022/08/12 07:42:13;;;;;;;;;;;;;;;27.17;41.33;96765.50;4184602;28;5721;-72
2022/08/12 07:44:17;;;;;;;;;;;;;;;27.18;41.63;96772.56;4196504;28;5802;-72
2022/08/12 07:46:22;;;;;;;;;;;;;;;27.21;41.83;96766.53;4198770;28;5700;-72
2022/08/12 07:48:26;;;;;;;;;;;;;;;27.20;41.88;96762.19;4198325;28;5676;-72
2022/08/12 07:50:29;;;;;;;;;;;;;;;27.20;41.63;96764.13;4198745;28;5701;-71
2022/08/12 07:52:33;;;;;;;;;;;;;;;27.21;41.70;96766.53;4199382;28;5126;-71
2022/08/12 07:54:36;;;;;;;;;;;;;;;27.19;42.08;96757.88;4199900;28;5798;-71
2022/08/12 07:56:42;;;;;;;;;;;;;;;27.18;41.76;96764.41;4188892;28;5733;-71
2022/08/12 07:58:45;;;;;;;;;;;;;;;27.22;41.82;96759.19;4184677;28;5749;-71
2022/08/12 08:00:49;;;;;;;;;;;;;;;27.17;42.04;96764.69;4199177;28;6499;-71
2022/08/12 08:02:53;;;;;;;;;;;;;;;27.16;42.00;96757.66;4196649;28;5689;-71
2022/08/12 08:04:55;;;;;;;;;;;;;;;27.17;42.01;96756.56;4195357;28;5688;-71
2022/08/12 08:06:59;;;;;;;;;;;;;;;27.17;42.01;96770.91;4190895;28;5702;-71
2022/08/12 08:09:04;;;;;;;;;;;;;;;27.16;41.85;96769.31;4197586;28;5748;-71
2022/08/12 08:13:29;;;;;;;;;;;;;;;27.21;41.82;96768.44;4198501;28;5685;-71
2022/08/12 08:15:34;;;;;;;;;;;;;;;27.23;41.64;96767.03;4198746;28;5693;-70
2022/08/12 08:18:00;;;;;;;;;;;;;;;27.23;41.89;96768.94;4198873;28;5791;-70
2022/08/12 08:20:04;;;;;;;;;;;;;;;27.20;41.74;96759.50;4198262;28;5823;-71
2022/08/12 08:22:09;;;;;;;;;;;;;;;27.19;41.64;96760.59;4199383;28;5863;-71
2022/08/12 08:24:17;;;;;;;;;;;;;;;27.22;41.56;96759.97;4197352;28;5930;-71
2022/08/12 08:26:25;;;;;;;;;;;;;;;27.26;41.78;96762.91;4199042;28;5700;-70
2022/08/12 08:28:35;;;;;;;;;;;;;;;27.28;41.70;96761.47;4198665;28;5165;-72
2022/08/12 08:30:42;;;;;;;;;;;;;;;27.30;41.56;96760.41;4190338;28;5878;-71
2022/08/12 08:32:45;;;;;;;;;;;;;;;27.30;41.38;96763.13;4198795;28;5700;-71
2022/08/12 08:34:48;;;;;;;;;;;;;;;27.34;41.37;96761.41;4197733;28;5693;-70
2022/08/12 08:36:56;;;;;;;;;;;;;;;27.38;41.25;96762.41;4199097;28;5840;-71
2022/08/12 08:38:59;;;;;;;;;;;;;;;27.40;41.02;96765.59;4197770;28;5685;-71
2022/08/12 08:43:45;;;;;;;;;;;;;;;27.43;41.08;96765.03;4199550;28;5805;-71
2022/08/12 08:45:48;;;;;;;;;;;;;;;27.43;40.92;96765.81;4197266;28;5719;-70
2022/08/12 08:47:51;;;;;;;;;;;;;;;27.43;41.01;96759.59;4200764;28;5725;-71
2022/08/12 08:49:59;;;;;;;;;;;;;;;27.42;41.02;96758.00;4201682;28;5704;-71
2022/08/12 08:52:03;;;;;;;;;;;;;;;27.38;41.07;96752.34;4202241;28;7746;-71
2022/08/12 08:54:07;;;;;;;;;;;;;;;27.35;41.12;96752.94;4198618;28;5768;-71
2022/08/12 08:56:10;;;;;;;;;;;;;;;27.37;41.02;96745.31;4192117;28;5693;-71
2022/08/12 08:58:15;;;;;;;;;;;;;;;27.38;40.76;96746.91;4192123;28;7912;-71
2022/08/12 09:00:20;;;;;;;;;;;;;;;27.38;40.80;96746.09;4184480;28;5729;-71
2022/08/12 09:02:23;;;;;;;;;;;;;;;27.40;40.72;96746.59;4190249;28;5700;-71
2022/08/12 09:04:31;;;;;;;;;;;;;;;27.42;40.75;96741.69;4194343;28;5712;-71
2022/08/12 09:06:57;;;;;;;;;;;;;;;27.48;40.82;96729.63;4196314;28;8497;-71
2022/08/12 09:09:04;;;;;;;;;;;;;;;27.51;40.67;96729.00;4202603;28;5682;-74
2022/08/12 09:14:09;;;;;;;;;;;;;;;27.46;40.90;96724.50;4196990;28;5810;-74
2022/08/12 09:16:23;;;;;;;;;;;;;;;27.49;40.94;96729.31;4196434;28;5714;-74
2022/08/12 09:18:27;;;;;;;;;;;;;;;27.50;40.90;96721.97;4185443;28;5878;-74
2022/08/12 09:20:37;;;;;;;;;;;;;;;27.54;40.77;96725.69;4198177;28;5681;-74
2022/08/12 09:22:40;;;;;;;;;;;;;;;27.58;40.91;96723.97;4201146;28;5721;-74
2022/08/12 09:24:51;;;;;;;;;;;;;;;27.60;40.54;96721.75;4201118;28;5810;-74
2022/08/12 09:26:55;;;;;;;;;;;;;;;27.63;40.70;96717.63;4202300;28;6903;-73
2022/08/12 09:29:01;;;;;;;;;;;;;;;27.65;40.48;96726.31;4202403;28;5712;-73
2022/08/12 09:31:15;;;;;;;;;;;;;;;27.62;40.82;96722.25;4201955;28;5757;-72
2022/08/12 09:33:39;;;;;;;;;;;;;;;27.61;40.73;96720.66;4202028;28;5813;-74
2022/08/12 09:36:03;;;;;;;;;;;;;;;27.64;40.69;96730.91;4202109;28;5725;-73
2022/08/12 09:38:07;;;;;;;;;;;;;;;27.68;41.06;96718.38;4202348;28;5784;-74
2022/08/12 09:40:31;;;;;;;;;;;;;;;27.72;41.03;96730.22;4201857;28;5860;-74
2022/08/12 09:45:23;;;;;;;;;;;;;;;27.75;41.02;96713.31;4202175;28;5689;-73
2022/08/12 09:47:46;;;;;;;;;;;;;;;27.77;41.17;96710.31;4201788;28;5678;-74
2022/08/12 09:50:03;;;;;;;;;;;;;;;27.76;41.44;96706.78;4202056;28;5786;-74
2022/08/12 09:52:22;;;;;;;;;;;;;;;27.75;41.44;96707.09;4201854;28;5714;-74
2022/08/12 09:54:33;;;;;;;;;;;;;;;27.76;41.31;96698.63;4201896;28;5700;-74
2022/08/12 09:56:38;;;;;;;;;;;;;;;27.80;41.48;96713.19;4201963;28;5705;-74
2022/08/12 09:59:01;;;;;;;;;;;;;;;27.84;41.41;96699.81;4201990;28;5753;-75
2022/08/12 10:01:08;;;;;;;;;;;;;;;27.82;41.61;96697.41;4201560;28;5799;-74
2022/08/12 10:03:27;;;;;;;;;;;;;;;27.83;41.66;96693.56;4201706;28;5724;-74
2022/08/12 10:05:40;;;;;;;;;;;;;;;27.83;41.62;96693.56;4201995;28;5850;-74
2022/08/12 10:08:04;;;;;;;;;;;;;;;27.81;41.79;96689.56;4201557;28;5689;-73
2022/08/12 10:10:10;;;;;;;;;;;;;;;27.81;41.44;96697.72;4203993;28;5768;-73
2022/08/12 10:15:13;;;;;;;;;;;;;;;27.82;41.60;96689.25;4194215;28;5916;-74
2022/08/12 10:17:36;;;;;;;;;;;;;;;27.81;41.47;96684.13;4184891;28;5812;-74
2022/08/12 10:19:59;;;;;;;;;;;;;;;27.77;41.57;96678.50;4194348;28;5712;-74
2022/08/12 10:22:05;;;;;;;;;;;;;;;27.78;41.62;96679.31;4194307;28;5717;-73
2022/08/12 10:24:28;;;;;;;;;;;;;;;27.82;41.54;96669.44;4184434;28;5832;-73
2022/08/12 10:31:33;;;;;;;;;;;;;;;27.85;41.26;96664.19;4221259;28;5894;-74
2022/08/12 10:33:56;;;;;;;;;;;;;;;27.90;40.96;96654.31;4183988;28;5789;-74
2022/08/12 10:36:19;;;;;;;;;;;;;;;27.93;41.15;96659.13;4195977;28;5693;-74
2022/08/12 10:38:39;;;;;;;;;;;;;;;27.95;40.97;96665.84;4184930;28;5806;-74
2022/08/12 10:45:26;;;;;;;;;;;;;;;28.01;40.84;96661.94;4187546;28;6847;-74
2022/08/12 10:47:34;;;;;;;;;;;;;;;28.04;40.60;96657.78;4184037;28;5733;-73
2022/08/12 10:49:58;;;;;;;;;;;;;;;28.04;40.82;96650.44;4186306;28;6501;-73
2022/08/12 10:52:23;;;;;;;;;;;;;;;28.07;40.74;96654.44;4190165;28;5914;-73
2022/08/12 10:54:49;;;;;;;;;;;;;;;28.11;40.42;96658.16;4191079;28;5796;-73
2022/08/12 10:56:53;;;;;;;;;;;;;;;28.10;40.50;96651.94;4184065;28;5725;-74
2022/08/12 10:58:56;;;;;;;;;;;;;;;28.12;40.34;96651.63;4184544;28;5875;-74
2022/08/12 11:01:04;;;;;;;;;;;;;;;28.13;40.36;96653.22;4184010;28;5730;-74
2022/08/12 11:03:27;;;;;;;;;;;;;;;28.16;40.26;96649.88;4186121;28;5772;-74
2022/08/12 11:05:57;;;;;;;;;;;;;;;28.17;40.06;96648.75;4183521;28;5745;-74
2022/08/12 11:08:21;;;;;;;;;;;;;;;28.17;40.11;96648.75;4190015;28;5834;-75
2022/08/12 11:10:44;;;;;;;;;;;;;;;28.19;40.03;96649.25;4197409;28;5817;-73
2022/08/12 11:12:49;;;;;;;;;;;;;;;28.20;39.95;96652.78;4195234;28;5697;-73
2022/08/12 11:15:02;;;;;;;;;;;;;;;28.21;39.92;96644.34;4196597;28;5850;-75
2022/08/12 11:17:22;;;;;;;;;;;;;;;28.24;39.82;96643.69;4196710;28;5680;-74
2022/08/12 11:19:46;;;;;;;;;;;;;;;28.23;39.64;96644.81;4198775;28;5748;-74
2022/08/12 11:21:51;;;;;;;;;;;;;;;28.23;39.47;96642.09;4197046;28;5979;-73
2022/08/12 11:24:00;;;;;;;;;;;;;;;28.27;39.57;96643.09;4198986;28;5685;-74
2022/08/12 11:26:06;;;;;;;;;;;;;;;28.28;39.23;96631.13;4192892;28;5797;-74
2022/08/12 11:28:10;;;;;;;;;;;;;;;28.31;39.29;96633.22;4195522;28;5701;-74
2022/08/12 11:30:15;;;;;;;;;;;;;;;28.32;39.34;96620.44;4199802;28;5692;-74
2022/08/12 11:32:34;;;;;;;;;;;;;;;28.33;39.14;96614.69;4198222;28;5700;-74
2022/08/12 11:34:40;;;;;;;;;;;;;;;28.38;39.13;96624.63;4199541;28;5876;-74
2022/08/12 11:36:57;;;;;;;;;;;;;;;28.41;39.16;96616.63;4198964;28;5704;-74
2022/08/12 11:39:00;;;;;;;;;;;;;;;28.45;38.87;96616.03;4196281;28;5779;-74
2022/08/12 11:41:08;;;;;;;;;;;;;;;28.47;38.98;96619.25;4195985;28;5827;-74
2022/08/12 11:43:11;;;;;;;;;;;;;;;28.49;39.04;96617.81;4199826;28;6244;-74
2022/08/12 11:45:22;;;;;;;;;;;;;;;28.49;38.80;96611.56;4198677;28;5697;-74
2022/08/12 11:47:25;;;;;;;;;;;;;;;28.54;38.86;96619.56;4199331;28;5693;-73
2022/08/12 11:49:28;;;;;;;;;;;;;;;28.57;38.85;96608.09;4199526;28;5812;-74
2022/08/12 11:51:34;;;;;;;;;;;;;;;28.58;38.86;96605.06;4195476;28;5707;-74
2022/08/12 11:53:41;;;;;;;;;;;;;;;28.60;38.70;96608.25;4197867;28;5685;-74
2022/08/12 11:56:02;;;;;;;;;;;;;;;28.60;38.67;96602.03;4198775;28;5700;-74
2022/08/12 11:58:07;;;;;;;;;;;;;;;28.60;38.57;96596.59;4195816;28;5760;-74
2022/08/12 12:00:31;;;;;;;;;;;;;;;28.62;38.64;96605.22;4197952;28;5863;-74
2022/08/12 12:02:54;;;;;;;;;;;;;;;28.64;38.44;96592.91;4199067;28;6391;-74
2022/08/12 12:04:57;;;;;;;;;;;;;;;28.67;38.62;96597.75;4194520;28;5860;-74
2022/08/12 12:07:00;;;;;;;;;;;;;;;28.69;38.32;96592.78;4196080;28;5704;-74
2022/08/12 12:09:09;;;;;;;;;;;;;;;28.70;38.38;96593.59;4198983;28;5689;-75
2022/08/12 12:11:12;;;;;;;;;;;;;;;28.72;38.34;96588.63;4197721;28;5684;-74
2022/08/12 12:13:16;;;;;;;;;;;;;;;28.71;38.40;96587.81;4198910;28;5693;-75
2022/08/12 12:15:39;;;;;;;;;;;;;;;28.74;38.27;96575.50;4198896;28;5828;-75
2022/08/12 12:17:43;;;;;;;;;;;;;;;28.75;38.25;96570.88;4199072;28;5684;-75
2022/08/12 12:19:46;;;;;;;;;;;;;;;28.77;38.14;96580.34;4199255;28;5703;-75
2022/08/12 12:21:49;;;;;;;;;;;;;;;28.78;38.03;96570.25;4199927;28;5688;-75
2022/08/12 12:23:52;;;;;;;;;;;;;;;28.79;38.02;96567.22;4203088;28;5845;-75
2022/08/12 12:26:03;;;;;;;;;;;;;;;28.81;38.04;96564.97;4201501;28;5697;-75
2022/08/12 12:28:12;;;;;;;;;;;;;;;28.83;38.20;96561.94;4203548;28;5712;-75
2022/08/12 12:30:37;;;;;;;;;;;;;;;28.83;38.05;96557.31;4203405;28;5755;-75
2022/08/12 12:32:40;;;;;;;;;;;;;;;28.84;38.03;96556.19;4203064;28;6382;-76
2022/08/12 12:34:55;;;;;;;;;;;;;;;28.83;37.92;96556.50;4203050;28;5834;-75
2022/08/12 12:37:19;;;;;;;;;;;;;;;28.86;37.92;96550.41;4203413;28;5836;-75
2022/08/12 12:39:42;;;;;;;;;;;;;;;28.85;37.86;96552.34;4203142;28;5701;-76
2022/08/12 12:41:57;;;;;;;;;;;;;;;28.86;37.97;96553.94;4203068;28;5863;-75
2022/08/12 12:44:20;;;;;;;;;;;;;;;28.87;38.01;96552.81;4202807;28;5689;-75
2022/08/12 12:46:33;;;;;;;;;;;;;;;28.87;38.03;96544.66;4202514;28;5720;-74
2022/08/12 12:48:36;;;;;;;;;;;;;;;28.87;37.82;96544.66;4202846;28;5795;-74
2022/08/12 12:51:14;;;;;;;;;;;;;;;28.88;37.83;96542.75;4202604;28;5983;-74
2022/08/12 12:53:14;;;;;;;;;;;;;;;28.89;37.77;96539.75;4202548;28;5692;-74
2022/08/12 12:55:37;;;;;;;;;;;;;;;28.91;37.75;96537.50;4202015;28;5841;-74
2022/08/12 12:57:41;;;;;;;;;;;;;;;28.92;37.96;96541.84;4202688;28;5712;-75
2022/08/12 13:00:16;;;;;;;;;;;;;;;28.95;37.66;96540.38;4202581;28;5101;-74
2022/08/12 13:02:21;;;;;;;;;;;;;;;28.95;37.59;96541.19;4189783;28;5685;-74
2022/08/12 13:04:33;;;;;;;;;;;;;;;28.95;37.71;96534.94;4202372;28;5777;-74
2022/08/12 13:06:40;;;;;;;;;;;;;;;28.96;37.71;96540.06;4202056;28;5692;-74
2022/08/12 13:08:44;;;;;;;;;;;;;;;28.97;37.62;96538.16;4199710;28;5821;-74
2022/08/12 13:10:48;;;;;;;;;;;;;;;28.97;37.57;96528.06;4202245;28;6580;-74
2022/08/12 13:12:54;;;;;;;;;;;;;;;28.97;37.90;96519.09;4196338;28;5829;-74
2022/08/12 13:14:58;;;;;;;;;;;;;;;29.00;37.43;96523.94;4201310;28;5768;-74
2022/08/12 13:17:01;;;;;;;;;;;;;;;29.02;37.46;96515.44;4199202;28;5796;-74
2022/08/12 13:19:09;;;;;;;;;;;;;;;29.05;37.47;96520.25;4190573;28;5705;-74
2022/08/12 13:21:17;;;;;;;;;;;;;;;29.08;37.34;96508.72;4200567;28;5952;-74
2022/08/12 13:23:36;;;;;;;;;;;;;;;29.13;37.14;96516.75;4189880;28;5716;-74
2022/08/12 13:25:41;;;;;;;;;;;;;;;29.16;37.11;96511.44;4197152;28;5803;-74
2022/08/12 13:27:46;;;;;;;;;;;;;;;29.19;36.97;96512.72;4200471;28;5700;-74
2022/08/12 13:29:53;;;;;;;;;;;;;;;29.18;37.04;96511.13;4190538;28;5856;-74
2022/08/12 13:32:01;;;;;;;;;;;;;;;29.21;36.86;96515.91;4187003;28;5114;-74
2022/08/12 13:34:25;;;;;;;;;;;;;;;29.23;36.76;96510.97;4188967;28;5707;-75
2022/08/12 13:36:36;;;;;;;;;;;;;;;29.22;36.69;96510.19;4197481;28;5849;-75
2022/08/12 13:38:42;;;;;;;;;;;;;;;29.23;36.90;96513.72;4200676;28;5700;-75
2022/08/12 13:40:57;;;;;;;;;;;;;;;29.23;36.63;96510.97;4198338;28;5720;-75
2022/08/12 13:43:05;;;;;;;;;;;;;;;29.22;36.73;96506.63;4198471;28;5795;-75
2022/08/12 13:45:10;;;;;;;;;;;;;;;29.23;36.74;96510.97;4198833;28;5696;-74
2022/08/12 13:47:15;;;;;;;;;;;;;;;29.23;36.82;96505.53;4194440;28;5730;-74
2022/08/12 13:49:22;;;;;;;;;;;;;;;29.24;36.77;96507.94;4198298;28;5663;-74
2022/08/12 13:51:51;;;;;;;;;;;;;;;29.26;36.84;96504.91;4196344;28;5824;-75
2022/08/12 13:53:55;;;;;;;;;;;;;;;29.25;36.73;96504.09;4200163;28;5700;-75
2022/08/12 13:56:01;;;;;;;;;;;;;;;29.24;36.75;96507.13;4194239;28;5791;-75
2022/08/12 13:58:05;;;;;;;;;;;;;;;29.26;36.32;96500.25;4199479;28;5684;-75
2022/08/12 14:00:15;;;;;;;;;;;;;;;29.27;36.79;96499.13;4184815;28;5737;-74
2022/08/12 14:02:19;;;;;;;;;;;;;;;29.28;36.69;96502.66;4194001;28;5775;-75
2022/08/12 14:04:25;;;;;;;;;;;;;;;29.28;36.56;96494.47;4185951;28;6416;-75
2022/08/12 14:06:29;;;;;;;;;;;;;;;29.31;36.60;96491.09;4189683;28;5744;-75
2022/08/12 14:08:35;;;;;;;;;;;;;;;29.32;36.46;96495.44;4200889;28;5677;-75
2022/08/12 14:10:40;;;;;;;;;;;;;;;29.32;36.55;96491.91;4190823;28;5713;-76
2022/08/12 14:12:53;;;;;;;;;;;;;;;29.34;36.51;96490.50;4197316;28;5797;-76
2022/08/12 14:14:57;;;;;;;;;;;;;;;29.38;36.24;96480.53;4185206;28;5895;-75
2022/08/12 14:17:08;;;;;;;;;;;;;;;29.41;36.28;96490.78;4185993;28;6380;-75
2022/08/12 14:19:12;;;;;;;;;;;;;;;29.40;36.17;96483.75;4193027;28;6382;-75
2022/08/12 14:21:28;;;;;;;;;;;;;;;29.40;36.16;96488.38;4184842;28;6420;-76
2022/08/12 14:23:53;;;;;;;;;;;;;;;29.43;36.22;96479.56;4188505;28;5745;-75
2022/08/12 14:26:13;;;;;;;;;;;;;;;29.45;36.18;96485.50;4188527;28;5689;-75
2022/08/12 14:28:22;;;;;;;;;;;;;;;29.46;36.06;96492.56;4199722;28;5256;-74
2022/08/12 14:30:28;;;;;;;;;;;;;;;29.45;35.94;96480.06;4195243;28;5177;-71
2022/08/12 14:32:33;;;;;;;;;;;;;;;29.45;35.90;96478.16;4193890;28;5689;-70
2022/08/12 14:34:38;;;;;;;;;;;;;;;29.45;35.88;96477.34;4197067;28;7876;-70
2022/08/12 14:36:45;;;;;;;;;;;;;;;29.44;35.81;96483.88;4197103;28;7747;-70
2022/08/12 14:38:51;;;;;;;;;;;;;;;29.43;35.77;96482.28;4199920;28;5708;-71
2022/08/12 14:40:57;;;;;;;;;;;;;;;29.43;35.70;96477.66;4197088;28;6782;-70
2022/08/12 14:43:01;;;;;;;;;;;;;;;29.42;35.65;96481.50;4196702;28;5898;-71
2022/08/12 14:45:09;;;;;;;;;;;;;;;29.42;35.40;96478.78;4198433;28;5736;-70
2022/08/12 14:47:14;;;;;;;;;;;;;;;29.43;35.59;96476.84;4199590;28;5720;-70
2022/08/12 14:49:18;;;;;;;;;;;;;;;29.44;35.49;96471.06;4194034;28;5832;-66
2022/08/12 14:51:41;;;;;;;;;;;;;;;29.45;35.26;96471.91;4197150;28;5851;-69
2022/08/12 14:54:09;;;;;;;;;;;;;;;29.43;35.45;96466.75;4200359;28;5708;-72
2022/08/12 14:56:34;;;;;;;;;;;;;;;29.47;35.17;96464.22;4200224;28;5727;-71
2022/08/12 15:01:41;;;;;;;;;;;;;;;29.46;35.11;96466.13;4200805;28;5832;-75
2022/08/12 15:03:44;;;;;;;;;;;;;;;29.46;35.12;96471.56;4197410;28;5684;-74
2022/08/12 15:05:57;;;;;;;;;;;;;;;29.46;35.03;96473.50;4194931;28;5830;-70
2022/08/12 15:08:24;;;;;;;;;;;;;;;29.46;34.76;96471.56;4194926;28;5761;-69
2022/08/12 15:10:29;;;;;;;;;;;;;;;29.49;34.67;96470.94;4195722;28;5688;-66
2022/08/12 15:12:37;;;;;;;;;;;;;;;29.50;34.62;96471.75;4197603;28;5700;-67
2022/08/12 15:14:42;;;;;;;;;;;;;;;29.51;34.56;96474.16;4194658;28;5737;-72
2022/08/12 15:16:47;;;;;;;;;;;;;;;29.52;34.52;96469.50;4197396;28;6842;-71
2022/08/12 15:18:51;;;;;;;;;;;;;;;29.50;34.48;96461.66;4195233;28;6629;-75
2022/08/12 15:21:02;;;;;;;;;;;;;;;29.51;34.41;96467.91;4196468;28;5866;-71
2022/08/12 15:23:13;;;;;;;;;;;;;;;29.51;34.34;96465.97;4198143;28;6275;-68
2022/08/12 15:25:22;;;;;;;;;;;;;;;29.51;34.60;96462.47;4197735;28;5693;-68
2022/08/12 15:27:29;;;;;;;;;;;;;;;29.49;34.32;96464.72;4197016;28;6464;-68
2022/08/12 15:29:53;;;;;;;;;;;;;;;29.49;34.29;96465.50;4197626;28;5799;-76
2022/08/12 15:31:56;;;;;;;;;;;;;;;29.50;34.18;96466.31;4196658;28;5783;-76
2022/08/12 15:34:05;;;;;;;;;;;;;;;29.49;34.39;96465.50;4199144;28;5692;-69
2022/08/12 15:36:08;;;;;;;;;;;;;;;29.47;34.26;96464.22;4199033;28;5721;-69
2022/08/12 15:38:14;;;;;;;;;;;;;;;29.47;34.26;96462.31;4195675;28;6520;-69
2022/08/12 15:40:23;;;;;;;;;;;;;;;29.47;34.21;96458.75;4198134;28;5794;-69
2022/08/12 15:42:33;;;;;;;;;;;;;;;29.47;34.10;96459.59;4198610;28;5783;-69
2022/08/12 15:44:36;;;;;;;;;;;;;;;29.48;33.96;96452.22;4195028;28;5759;-69
2022/08/12 15:46:46;;;;;;;;;;;;;;;29.48;33.92;96461.19;4195831;28;6487;-69
2022/08/12 15:48:50;;;;;;;;;;;;;;;29.44;33.84;96457.47;4198874;28;5688;-69
2022/08/12 15:50:54;;;;;;;;;;;;;;;29.46;33.88;96455.25;4198844;28;5701;-69
2022/08/12 15:52:59;;;;;;;;;;;;;;;29.46;33.76;96447.06;4198984;28;5684;-69
2022/08/12 15:55:17;;;;;;;;;;;;;;;29.47;33.59;96456.88;4198856;28;5764;-69
2022/08/12 15:57:23;;;;;;;;;;;;;;;29.47;33.81;96445.97;4198764;28;5693;-69
2022/08/12 15:59:26;;;;;;;;;;;;;;;29.46;33.73;96449.00;4198422;28;6441;-69
2022/08/12 16:01:51;;;;;;;;;;;;;;;29.43;33.72;96447.69;4197007;28;5696;-69
2022/08/12 16:03:58;;;;;;;;;;;;;;;29.43;33.77;96447.69;4198880;28;5817;-69
2022/08/12 16:06:03;;;;;;;;;;;;;;;29.41;33.69;96441.78;4198821;28;5794;-69
2022/08/12 16:08:18;;;;;;;;;;;;;;;29.42;33.56;96448.81;4195540;28;5721;-68